sensor_id;sensor_type;location;lat;lon;timestamp;temperature;humidity
19258;DHT22;9763;48.780;9.212;2023-11-19T00:00:43;11.10;92.20
19258;DHT22;9763;48.780;9.212;2023-11-19T00:04:15;11.10;92.30
19258;DHT22;9763;48.780;9.212;2023-11-19T00:07:40;11.10;92.40
19258;DHT22;9763;48.780;9.212;2023-11-19T00:11:07;11.10;92.50
19258;DHT22;9763;48.780;9.212;2023-11-19T00:14:30;11.10;92.50
19258;DHT22;9763;48.780;9.212;2023-11-19T00:17:54;11.10;92.60
19258;DHT22;9763;48.780;9.212;2023-11-19T00:21:22;11.10;92.50
19258;DHT22;9763;48.780;9.212;2023-11-19T00:24:46;11.10;92.50
19258;DHT22;9763;48.780;9.212;2023-11-19T00:28:11;11.10;92.70
19258;DHT22;9763;48.780;9.212;2023-11-19T00:31:34;11.20;93.00
19258;DHT22;9763;48.780;9.212;2023-11-19T00:34:58;11.20;93.10
19258;DHT22;9763;48.780;9.212;2023-11-19T00:38:22;11.20;93.10
19258;DHT22;9763;48.780;9.212;2023-11-19T00:41:46;11.20;93.20
19258;DHT22;9763;48.780;9.212;2023-11-19T00:45:11;11.20;93.30
19258;DHT22;9763;48.780;9.212;2023-11-19T00:48:35;11.30;93.50
19258;DHT22;9763;48.780;9.212;2023-11-19T00:51:59;11.30;93.80
19258;DHT22;9763;48.780;9.212;2023-11-19T00:55:24;11.30;94.00
19258;DHT22;9763;48.780;9.212;2023-11-19T00:58:47;11.40;94.10
19258;DHT22;9763;48.780;9.212;2023-11-19T01:02:12;11.40;94.10
19258;DHT22;9763;48.780;9.212;2023-11-19T01:05:36;11.40;94.00
19258;DHT22;9763;48.780;9.212;2023-11-19T01:09:02;11.50;94.10
19258;DHT22;9763;48.780;9.212;2023-11-19T01:12:26;11.50;94.00
19258;DHT22;9763;48.780;9.212;2023-11-19T01:15:51;11.50;93.90
19258;DHT22;9763;48.780;9.212;2023-11-19T01:19:16;11.50;93.60
19258;DHT22;9763;48.780;9.212;2023-11-19T01:22:40;11.60;93.40
19258;DHT22;9763;48.780;9.212;2023-11-19T01:26:04;11.50;93.30
19258;DHT22;9763;48.780;9.212;2023-11-19T01:29:32;11.50;93.40
19258;DHT22;9763;48.780;9.212;2023-11-19T01:32:56;11.50;93.40
19258;DHT22;9763;48.780;9.212;2023-11-19T01:36:21;11.50;93.40
19258;DHT22;9763;48.780;9.212;2023-11-19T01:39:46;11.50;93.50
19258;DHT22;9763;48.780;9.212;2023-11-19T01:43:34;11.50;92.70
19258;DHT22;9763;48.780;9.212;2023-11-19T01:46:58;11.50;93.50
19258;DHT22;9763;48.780;9.212;2023-11-19T01:50:23;11.50;93.70
19258;DHT22;9763;48.780;9.212;2023-11-19T01:53:49;11.50;93.80
19258;DHT22;9763;48.780;9.212;2023-11-19T01:57:14;11.50;93.80
19258;DHT22;9763;48.780;9.212;2023-11-19T02:00:38;11.50;93.80
19258;DHT22;9763;48.780;9.212;2023-11-19T02:04:03;11.60;94.00
19258;DHT22;9763;48.780;9.212;2023-11-19T02:07:28;11.50;93.90
19258;DHT22;9763;48.780;9.212;2023-11-19T02:10:54;11.60;94.20
19258;DHT22;9763;48.780;9.212;2023-11-19T02:14:22;11.60;94.20
19258;DHT22;9763;48.780;9.212;2023-11-19T02:17:49;11.60;94.10
19258;DHT22;9763;48.780;9.212;2023-11-19T02:21:13;11.60;94.20
19258;DHT22;9763;48.780;9.212;2023-11-19T02:24:37;11.70;94.30
19258;DHT22;9763;48.780;9.212;2023-11-19T02:28:03;11.70;94.40
19258;DHT22;9763;48.780;9.212;2023-11-19T02:31:28;11.70;94.50
19258;DHT22;9763;48.780;9.212;2023-11-19T02:34:52;11.70;94.60
19258;DHT22;9763;48.780;9.212;2023-11-19T02:38:29;11.70;94.80
19258;DHT22;9763;48.780;9.212;2023-11-19T02:41:53;11.80;94.80
19258;DHT22;9763;48.780;9.212;2023-11-19T02:45:19;11.80;94.90
19258;DHT22;9763;48.780;9.212;2023-11-19T02:48:44;11.90;95.00
19258;DHT22;9763;48.780;9.212;2023-11-19T02:52:08;11.90;95.00
19258;DHT22;9763;48.780;9.212;2023-11-19T02:55:32;11.90;94.80
19258;DHT22;9763;48.780;9.212;2023-11-19T02:59:01;12.00;94.80
19258;DHT22;9763;48.780;9.212;2023-11-19T03:02:30;12.00;94.80
19258;DHT22;9763;48.780;9.212;2023-11-19T03:06:06;12.00;94.70
19258;DHT22;9763;48.780;9.212;2023-11-19T03:09:31;12.00;94.80
19258;DHT22;9763;48.780;9.212;2023-11-19T03:12:55;12.00;95.00
19258;DHT22;9763;48.780;9.212;2023-11-19T03:16:21;12.10;95.20
19258;DHT22;9763;48.780;9.212;2023-11-19T03:19:46;12.10;95.20
19258;DHT22;9763;48.780;9.212;2023-11-19T03:23:10;12.20;94.20
19258;DHT22;9763;48.780;9.212;2023-11-19T03:26:34;12.20;95.00
19258;DHT22;9763;48.780;9.212;2023-11-19T03:29:59;12.20;94.90
19258;DHT22;9763;48.780;9.212;2023-11-19T03:33:23;12.20;94.60
19258;DHT22;9763;48.780;9.212;2023-11-19T03:36:51;12.30;94.60
19258;DHT22;9763;48.780;9.212;2023-11-19T03:40:15;12.20;94.40
19258;DHT22;9763;48.780;9.212;2023-11-19T03:43:38;12.30;94.50
19258;DHT22;9763;48.780;9.212;2023-11-19T03:47:03;12.30;94.50
19258;DHT22;9763;48.780;9.212;2023-11-19T03:50:27;12.30;94.50
19258;DHT22;9763;48.780;9.212;2023-11-19T03:53:52;12.30;94.50
19258;DHT22;9763;48.780;9.212;2023-11-19T03:57:16;12.30;94.50
19258;DHT22;9763;48.780;9.212;2023-11-19T04:00:41;12.30;94.60
19258;DHT22;9763;48.780;9.212;2023-11-19T04:04:05;12.60;94.80
19258;DHT22;9763;48.780;9.212;2023-11-19T04:07:29;12.40;94.70
19258;DHT22;9763;48.780;9.212;2023-11-19T04:10:55;12.40;94.80
19258;DHT22;9763;48.780;9.212;2023-11-19T04:14:18;12.40;94.90
19258;DHT22;9763;48.780;9.212;2023-11-19T04:17:42;12.40;95.10
19258;DHT22;9763;48.780;9.212;2023-11-19T04:21:06;12.40;95.30
19258;DHT22;9763;48.780;9.212;2023-11-19T04:24:30;12.40;95.60
19258;DHT22;9763;48.780;9.212;2023-11-19T04:27:55;12.50;95.80
19258;DHT22;9763;48.780;9.212;2023-11-19T04:31:18;12.50;96.00
19258;DHT22;9763;48.780;9.212;2023-11-19T04:34:42;12.60;96.20
19258;DHT22;9763;48.780;9.212;2023-11-19T04:38:05;12.60;96.30
19258;DHT22;9763;48.780;9.212;2023-11-19T04:41:30;12.60;96.50
19258;DHT22;9763;48.780;9.212;2023-11-19T04:44:55;12.70;96.60
19258;DHT22;9763;48.780;9.212;2023-11-19T04:48:19;12.70;96.50
19258;DHT22;9763;48.780;9.212;2023-11-19T04:51:43;12.80;96.60
19258;DHT22;9763;48.780;9.212;2023-11-19T04:55:09;12.80;96.60
19258;DHT22;9763;48.780;9.212;2023-11-19T04:58:34;12.80;96.70
19258;DHT22;9763;48.780;9.212;2023-11-19T05:02:00;12.90;96.70
19258;DHT22;9763;48.780;9.212;2023-11-19T05:05:24;13.00;97.00
19258;DHT22;9763;48.780;9.212;2023-11-19T05:08:48;13.00;96.90
19258;DHT22;9763;48.780;9.212;2023-11-19T05:12:12;13.10;96.80
19258;DHT22;9763;48.780;9.212;2023-11-19T05:15:36;13.10;96.70
19258;DHT22;9763;48.780;9.212;2023-11-19T05:19:01;13.20;96.70
19258;DHT22;9763;48.780;9.212;2023-11-19T05:22:26;13.20;96.60
19258;DHT22;9763;48.780;9.212;2023-11-19T05:25:49;13.20;96.60
19258;DHT22;9763;48.780;9.212;2023-11-19T05:29:13;13.20;96.40
19258;DHT22;9763;48.780;9.212;2023-11-19T05:32:36;13.30;96.40
19258;DHT22;9763;48.780;9.212;2023-11-19T05:36:01;13.30;96.30
19258;DHT22;9763;48.780;9.212;2023-11-19T05:39:27;13.40;96.20
19258;DHT22;9763;48.780;9.212;2023-11-19T05:42:50;13.40;96.50
19258;DHT22;9763;48.780;9.212;2023-11-19T05:46:14;13.40;96.50
19258;DHT22;9763;48.780;9.212;2023-11-19T05:49:42;13.40;96.30
19258;DHT22;9763;48.780;9.212;2023-11-19T05:53:07;13.40;96.30
19258;DHT22;9763;48.780;9.212;2023-11-19T05:56:32;13.40;96.60
19258;DHT22;9763;48.780;9.212;2023-11-19T05:59:57;13.40;96.40
19258;DHT22;9763;48.780;9.212;2023-11-19T06:03:21;13.60;96.70
19258;DHT22;9763;48.780;9.212;2023-11-19T06:06:45;13.50;96.80
19258;DHT22;9763;48.780;9.212;2023-11-19T06:10:10;13.60;96.90
19258;DHT22;9763;48.780;9.212;2023-11-19T06:13:36;13.60;96.60
19258;DHT22;9763;48.780;9.212;2023-11-19T06:17:00;13.70;96.60
19258;DHT22;9763;48.780;9.212;2023-11-19T06:20:24;13.70;96.60
19258;DHT22;9763;48.780;9.212;2023-11-19T06:23:49;13.80;96.60
19258;DHT22;9763;48.780;9.212;2023-11-19T06:27:15;13.80;96.50
19258;DHT22;9763;48.780;9.212;2023-11-19T06:30:39;13.80;96.30
19258;DHT22;9763;48.780;9.212;2023-11-19T06:34:04;13.80;96.10
19258;DHT22;9763;48.780;9.212;2023-11-19T06:37:27;13.80;95.90
19258;DHT22;9763;48.780;9.212;2023-11-19T06:40:51;13.90;95.80
19258;DHT22;9763;48.780;9.212;2023-11-19T06:44:17;13.90;95.80
19258;DHT22;9763;48.780;9.212;2023-11-19T06:47:41;13.90;95.80
19258;DHT22;9763;48.780;9.212;2023-11-19T06:51:05;14.30;96.20
19258;DHT22;9763;48.780;9.212;2023-11-19T06:54:29;13.90;95.90
19258;DHT22;9763;48.780;9.212;2023-11-19T06:57:52;13.90;96.00
19258;DHT22;9763;48.780;9.212;2023-11-19T07:01:18;13.90;96.10
19258;DHT22;9763;48.780;9.212;2023-11-19T07:04:42;14.00;96.10
19258;DHT22;9763;48.780;9.212;2023-11-19T07:08:06;14.00;96.20
19258;DHT22;9763;48.780;9.212;2023-11-19T07:11:30;14.00;96.20
19258;DHT22;9763;48.780;9.212;2023-11-19T07:14:54;14.00;96.00
19258;DHT22;9763;48.780;9.212;2023-11-19T07:18:19;14.00;95.80
19258;DHT22;9763;48.780;9.212;2023-11-19T07:21:44;14.00;95.80
19258;DHT22;9763;48.780;9.212;2023-11-19T07:25:08;14.10;95.90
19258;DHT22;9763;48.780;9.212;2023-11-19T07:28:32;14.10;95.80
19258;DHT22;9763;48.780;9.212;2023-11-19T07:31:56;14.10;96.00
19258;DHT22;9763;48.780;9.212;2023-11-19T07:35:21;14.10;96.00
19258;DHT22;9763;48.780;9.212;2023-11-19T07:38:45;14.10;95.90
19258;DHT22;9763;48.780;9.212;2023-11-19T07:42:09;14.10;96.00
19258;DHT22;9763;48.780;9.212;2023-11-19T07:45:33;14.20;95.90
19258;DHT22;9763;48.780;9.212;2023-11-19T07:48:57;14.20;95.90
19258;DHT22;9763;48.780;9.212;2023-11-19T07:52:22;14.10;95.90
19258;DHT22;9763;48.780;9.212;2023-11-19T07:55:46;14.20;96.00
19258;DHT22;9763;48.780;9.212;2023-11-19T07:59:10;14.20;96.10
19258;DHT22;9763;48.780;9.212;2023-11-19T08:02:34;14.20;96.00
19258;DHT22;9763;48.780;9.212;2023-11-19T08:05:57;14.20;96.00
19258;DHT22;9763;48.780;9.212;2023-11-19T08:09:23;14.20;96.20
19258;DHT22;9763;48.780;9.212;2023-11-19T08:12:46;14.30;96.20
19258;DHT22;9763;48.780;9.212;2023-11-19T08:16:10;14.50;96.50
19258;DHT22;9763;48.780;9.212;2023-11-19T08:19:34;14.40;96.60
19258;DHT22;9763;48.780;9.212;2023-11-19T08:22:58;14.40;96.80
19258;DHT22;9763;48.780;9.212;2023-11-19T08:26:23;14.40;96.90
19258;DHT22;9763;48.780;9.212;2023-11-19T08:29:46;14.50;96.70
19258;DHT22;9763;48.780;9.212;2023-11-19T08:33:10;14.60;96.70
19258;DHT22;9763;48.780;9.212;2023-11-19T08:36:33;14.60;96.70
19258;DHT22;9763;48.780;9.212;2023-11-19T08:39:57;14.60;97.10
19258;DHT22;9763;48.780;9.212;2023-11-19T08:43:22;14.70;97.90
19258;DHT22;9763;48.780;9.212;2023-11-19T08:46:47;14.80;97.80
19258;DHT22;9763;48.780;9.212;2023-11-19T08:50:12;14.90;98.30
19258;DHT22;9763;48.780;9.212;2023-11-19T08:53:35;15.00;98.40
19258;DHT22;9763;48.780;9.212;2023-11-19T08:56:59;15.10;98.20
19258;DHT22;9763;48.780;9.212;2023-11-19T09:00:24;15.20;97.60
19258;DHT22;9763;48.780;9.212;2023-11-19T09:03:48;15.40;97.60
19258;DHT22;9763;48.780;9.212;2023-11-19T09:07:11;15.40;97.30
19258;DHT22;9763;48.780;9.212;2023-11-19T09:10:35;15.60;97.40
19258;DHT22;9763;48.780;9.212;2023-11-19T09:13:58;15.50;97.50
19258;DHT22;9763;48.780;9.212;2023-11-19T09:17:23;15.50;97.60
19258;DHT22;9763;48.780;9.212;2023-11-19T09:20:48;15.60;97.70
19258;DHT22;9763;48.780;9.212;2023-11-19T09:24:11;15.70;97.80
19258;DHT22;9763;48.780;9.212;2023-11-19T09:27:38;15.70;97.30
19258;DHT22;9763;48.780;9.212;2023-11-19T09:31:01;15.80;96.90
19258;DHT22;9763;48.780;9.212;2023-11-19T09:34:28;15.80;97.20
19258;DHT22;9763;48.780;9.212;2023-11-19T09:37:52;15.90;96.90
19258;DHT22;9763;48.780;9.212;2023-11-19T09:41:16;15.90;97.50
19258;DHT22;9763;48.780;9.212;2023-11-19T09:44:43;16.10;98.50
19258;DHT22;9763;48.780;9.212;2023-11-19T09:48:07;16.10;98.60
19258;DHT22;9763;48.780;9.212;2023-11-19T09:51:33;16.20;98.60
19258;DHT22;9763;48.780;9.212;2023-11-19T09:54:57;16.30;97.50
19258;DHT22;9763;48.780;9.212;2023-11-19T09:58:21;16.30;97.10
19258;DHT22;9763;48.780;9.212;2023-11-19T10:01:46;16.40;97.20
19258;DHT22;9763;48.780;9.212;2023-11-19T10:05:12;16.40;96.80
19258;DHT22;9763;48.780;9.212;2023-11-19T10:08:38;16.40;96.90
19258;DHT22;9763;48.780;9.212;2023-11-19T10:12:04;16.50;97.50
19258;DHT22;9763;48.780;9.212;2023-11-19T10:15:31;16.60;98.20
19258;DHT22;9763;48.780;9.212;2023-11-19T10:18:59;16.60;97.80
19258;DHT22;9763;48.780;9.212;2023-11-19T10:22:24;16.70;98.30
19258;DHT22;9763;48.780;9.212;2023-11-19T10:25:53;16.80;98.70
19258;DHT22;9763;48.780;9.212;2023-11-19T10:29:16;17.00;99.70
19258;DHT22;9763;48.780;9.212;2023-11-19T10:32:40;17.10;99.60
19258;DHT22;9763;48.780;9.212;2023-11-19T10:36:04;17.30;99.20
19258;DHT22;9763;48.780;9.212;2023-11-19T10:39:51;17.40;98.40
19258;DHT22;9763;48.780;9.212;2023-11-19T10:43:18;17.40;96.10
19258;DHT22;9763;48.780;9.212;2023-11-19T10:46:44;17.50;96.90
19258;DHT22;9763;48.780;9.212;2023-11-19T10:50:08;17.70;99.90
19258;DHT22;9763;48.780;9.212;2023-11-19T10:53:33;17.90;99.90
19258;DHT22;9763;48.780;9.212;2023-11-19T10:57:01;18.20;99.90
19258;DHT22;9763;48.780;9.212;2023-11-19T11:00:29;18.30;99.80
19258;DHT22;9763;48.780;9.212;2023-11-19T11:03:55;18.40;96.70
19258;DHT22;9763;48.780;9.212;2023-11-19T11:07:24;18.50;96.00
19258;DHT22;9763;48.780;9.212;2023-11-19T11:11:02;18.30;95.80
19258;DHT22;9763;48.780;9.212;2023-11-19T11:14:29;18.30;94.80
19258;DHT22;9763;48.780;9.212;2023-11-19T11:18:00;18.20;94.60
19258;DHT22;9763;48.780;9.212;2023-11-19T11:21:26;18.10;92.80
19258;DHT22;9763;48.780;9.212;2023-11-19T11:25:06;18.20;92.20
19258;DHT22;9763;48.780;9.212;2023-11-19T11:28:46;17.90;90.50
19258;DHT22;9763;48.780;9.212;2023-11-19T11:32:25;17.80;91.20
19258;DHT22;9763;48.780;9.212;2023-11-19T11:36:09;17.60;90.60
19258;DHT22;9763;48.780;9.212;2023-11-19T11:39:39;17.50;91.10
19258;DHT22;9763;48.780;9.212;2023-11-19T11:43:04;17.60;91.80
19258;DHT22;9763;48.780;9.212;2023-11-19T11:46:56;17.40;91.70
19258;DHT22;9763;48.780;9.212;2023-11-19T11:50:20;17.30;91.30
19258;DHT22;9763;48.780;9.212;2023-11-19T11:53:47;17.20;91.80
19258;DHT22;9763;48.780;9.212;2023-11-19T11:57:13;17.20;92.40
19258;DHT22;9763;48.780;9.212;2023-11-19T12:00:40;17.10;93.40
19258;DHT22;9763;48.780;9.212;2023-11-19T12:04:05;17.10;94.40
19258;DHT22;9763;48.780;9.212;2023-11-19T12:07:30;17.20;95.40
19258;DHT22;9763;48.780;9.212;2023-11-19T12:10:57;17.20;96.10
19258;DHT22;9763;48.780;9.212;2023-11-19T12:15:00;17.30;95.90
19258;DHT22;9763;48.780;9.212;2023-11-19T12:18:29;17.40;94.10
19258;DHT22;9763;48.780;9.212;2023-11-19T12:21:54;17.50;96.40
19258;DHT22;9763;48.780;9.212;2023-11-19T12:25:18;17.60;96.90
19258;DHT22;9763;48.780;9.212;2023-11-19T12:28:57;17.60;96.20
19258;DHT22;9763;48.780;9.212;2023-11-19T12:32:21;17.70;94.20
19258;DHT22;9763;48.780;9.212;2023-11-19T12:35:46;17.80;95.90
19258;DHT22;9763;48.780;9.212;2023-11-19T12:39:11;17.80;94.20
19258;DHT22;9763;48.780;9.212;2023-11-19T12:42:38;17.90;94.10
19258;DHT22;9763;48.780;9.212;2023-11-19T12:46:03;17.80;92.10
19258;DHT22;9763;48.780;9.212;2023-11-19T12:49:41;17.80;91.90
19258;DHT22;9763;48.780;9.212;2023-11-19T12:53:04;17.80;91.10
19258;DHT22;9763;48.780;9.212;2023-11-19T12:56:28;17.60;91.00
19258;DHT22;9763;48.780;9.212;2023-11-19T12:59:56;17.60;90.60
19258;DHT22;9763;48.780;9.212;2023-11-19T13:03:30;17.50;91.20
19258;DHT22;9763;48.780;9.212;2023-11-19T13:06:56;17.50;91.50
19258;DHT22;9763;48.780;9.212;2023-11-19T13:10:22;17.40;91.40
19258;DHT22;9763;48.780;9.212;2023-11-19T13:13:56;17.40;91.90
19258;DHT22;9763;48.780;9.212;2023-11-19T13:17:21;17.40;91.40
19258;DHT22;9763;48.780;9.212;2023-11-19T13:20:47;17.40;92.60
19258;DHT22;9763;48.780;9.212;2023-11-19T13:24:11;17.30;90.90
19258;DHT22;9763;48.780;9.212;2023-11-19T13:27:35;17.30;91.00
19258;DHT22;9763;48.780;9.212;2023-11-19T13:30:59;17.30;90.80
19258;DHT22;9763;48.780;9.212;2023-11-19T13:34:23;17.30;90.30
19258;DHT22;9763;48.780;9.212;2023-11-19T13:37:49;17.20;90.80
19258;DHT22;9763;48.780;9.212;2023-11-19T13:41:14;17.20;90.40
19258;DHT22;9763;48.780;9.212;2023-11-19T13:44:37;17.10;91.50
19258;DHT22;9763;48.780;9.212;2023-11-19T13:48:01;17.10;91.00
19258;DHT22;9763;48.780;9.212;2023-11-19T13:51:25;17.10;91.60
19258;DHT22;9763;48.780;9.212;2023-11-19T13:54:50;17.10;91.90
19258;DHT22;9763;48.780;9.212;2023-11-19T13:58:15;17.00;91.20
19258;DHT22;9763;48.780;9.212;2023-11-19T14:01:39;17.00;91.30
19258;DHT22;9763;48.780;9.212;2023-11-19T14:05:03;17.00;91.50
19258;DHT22;9763;48.780;9.212;2023-11-19T14:08:27;17.00;91.40
19258;DHT22;9763;48.780;9.212;2023-11-19T14:11:52;16.90;91.10
19258;DHT22;9763;48.780;9.212;2023-11-19T14:15:16;16.90;90.40
19258;DHT22;9763;48.780;9.212;2023-11-19T14:18:40;16.80;90.50
19258;DHT22;9763;48.780;9.212;2023-11-19T14:22:04;16.70;90.40
19258;DHT22;9763;48.780;9.212;2023-11-19T14:25:27;16.80;90.50
19258;DHT22;9763;48.780;9.212;2023-11-19T14:28:52;16.60;90.40
19258;DHT22;9763;48.780;9.212;2023-11-19T14:32:17;16.60;90.80
19258;DHT22;9763;48.780;9.212;2023-11-19T14:35:41;16.60;91.00
19258;DHT22;9763;48.780;9.212;2023-11-19T14:39:05;16.50;90.80
19258;DHT22;9763;48.780;9.212;2023-11-19T14:42:30;16.50;90.70
19258;DHT22;9763;48.780;9.212;2023-11-19T14:45:54;16.40;90.70
19258;DHT22;9763;48.780;9.212;2023-11-19T14:49:19;16.40;90.70
19258;DHT22;9763;48.780;9.212;2023-11-19T14:52:43;16.40;90.90
19258;DHT22;9763;48.780;9.212;2023-11-19T14:56:10;16.30;90.90
19258;DHT22;9763;48.780;9.212;2023-11-19T14:59:35;16.30;90.30
19258;DHT22;9763;48.780;9.212;2023-11-19T15:03:00;16.30;90.90
19258;DHT22;9763;48.780;9.212;2023-11-19T15:06:24;16.20;90.90
19258;DHT22;9763;48.780;9.212;2023-11-19T15:09:49;16.20;90.90
19258;DHT22;9763;48.780;9.212;2023-11-19T15:13:13;16.10;90.70
19258;DHT22;9763;48.780;9.212;2023-11-19T15:16:37;16.10;91.00
19258;DHT22;9763;48.780;9.212;2023-11-19T15:20:03;16.10;90.50
19258;DHT22;9763;48.780;9.212;2023-11-19T15:23:28;16.00;90.30
19258;DHT22;9763;48.780;9.212;2023-11-19T15:26:52;16.00;90.30
19258;DHT22;9763;48.780;9.212;2023-11-19T15:30:35;16.10;89.60
19258;DHT22;9763;48.780;9.212;2023-11-19T15:33:59;15.90;90.10
19258;DHT22;9763;48.780;9.212;2023-11-19T15:37:26;15.80;90.00
19258;DHT22;9763;48.780;9.212;2023-11-19T15:40:50;15.80;90.00
19258;DHT22;9763;48.780;9.212;2023-11-19T15:44:14;15.70;90.10
19258;DHT22;9763;48.780;9.212;2023-11-19T15:47:38;15.70;89.10
19258;DHT22;9763;48.780;9.212;2023-11-19T15:51:02;15.60;89.70
19258;DHT22;9763;48.780;9.212;2023-11-19T15:54:28;15.60;89.00
19258;DHT22;9763;48.780;9.212;2023-11-19T15:57:51;15.50;89.80
19258;DHT22;9763;48.780;9.212;2023-11-19T16:01:15;15.50;89.80
19258;DHT22;9763;48.780;9.212;2023-11-19T16:04:40;15.50;89.90
19258;DHT22;9763;48.780;9.212;2023-11-19T16:08:04;15.40;90.10
19258;DHT22;9763;48.780;9.212;2023-11-19T16:11:31;15.30;90.10
19258;DHT22;9763;48.780;9.212;2023-11-19T16:15:12;15.30;89.60
19258;DHT22;9763;48.780;9.212;2023-11-19T16:18:37;15.30;89.90
19258;DHT22;9763;48.780;9.212;2023-11-19T16:22:00;15.30;89.20
19258;DHT22;9763;48.780;9.212;2023-11-19T16:25:32;15.20;89.90
19258;DHT22;9763;48.780;9.212;2023-11-19T16:28:59;15.20;89.90
19258;DHT22;9763;48.780;9.212;2023-11-19T16:32:24;15.10;90.00
19258;DHT22;9763;48.780;9.212;2023-11-19T16:35:48;15.10;90.00
19258;DHT22;9763;48.780;9.212;2023-11-19T16:39:12;15.10;90.10
19258;DHT22;9763;48.780;9.212;2023-11-19T16:42:38;14.00;89.70
19258;DHT22;9763;48.780;9.212;2023-11-19T16:46:04;15.10;90.60
19258;DHT22;9763;48.780;9.212;2023-11-19T16:49:32;15.00;90.30
19258;DHT22;9763;48.780;9.212;2023-11-19T16:52:55;15.00;90.20
19258;DHT22;9763;48.780;9.212;2023-11-19T16:56:19;15.00;90.20
19258;DHT22;9763;48.780;9.212;2023-11-19T16:59:43;15.00;90.20
19258;DHT22;9763;48.780;9.212;2023-11-19T17:03:10;15.00;90.30
19258;DHT22;9763;48.780;9.212;2023-11-19T17:06:34;14.90;90.00
19258;DHT22;9763;48.780;9.212;2023-11-19T17:09:57;14.90;90.10
19258;DHT22;9763;48.780;9.212;2023-11-19T17:13:21;14.90;89.90
19258;DHT22;9763;48.780;9.212;2023-11-19T17:16:45;14.80;90.00
19258;DHT22;9763;48.780;9.212;2023-11-19T17:20:11;14.80;90.00
19258;DHT22;9763;48.780;9.212;2023-11-19T17:23:35;14.80;89.70
19258;DHT22;9763;48.780;9.212;2023-11-19T17:26:59;14.70;90.10
19258;DHT22;9763;48.780;9.212;2023-11-19T17:30:23;14.70;90.10
19258;DHT22;9763;48.780;9.212;2023-11-19T17:33:46;14.70;90.20
19258;DHT22;9763;48.780;9.212;2023-11-19T17:37:11;14.60;90.00
19258;DHT22;9763;48.780;9.212;2023-11-19T17:40:35;14.60;89.00
19258;DHT22;9763;48.780;9.212;2023-11-19T17:43:59;14.60;89.90
19258;DHT22;9763;48.780;9.212;2023-11-19T17:47:23;14.60;90.30
19258;DHT22;9763;48.780;9.212;2023-11-19T17:50:47;14.50;90.40
19258;DHT22;9763;48.780;9.212;2023-11-19T17:54:14;14.50;90.40
19258;DHT22;9763;48.780;9.212;2023-11-19T17:57:39;14.50;90.20
19258;DHT22;9763;48.780;9.212;2023-11-19T18:01:04;14.50;90.40
19258;DHT22;9763;48.780;9.212;2023-11-19T18:04:28;14.50;90.20
19258;DHT22;9763;48.780;9.212;2023-11-19T18:07:53;14.40;90.50
19258;DHT22;9763;48.780;9.212;2023-11-19T18:11:19;14.40;90.30
19258;DHT22;9763;48.780;9.212;2023-11-19T18:14:44;14.40;90.30
19258;DHT22;9763;48.780;9.212;2023-11-19T18:18:11;14.40;90.50
19258;DHT22;9763;48.780;9.212;2023-11-19T18:21:36;14.40;90.60
19258;DHT22;9763;48.780;9.212;2023-11-19T18:25:00;14.60;90.50
19258;DHT22;9763;48.780;9.212;2023-11-19T18:28:25;14.40;90.40
19258;DHT22;9763;48.780;9.212;2023-11-19T18:31:50;14.40;90.40
19258;DHT22;9763;48.780;9.212;2023-11-19T18:35:14;14.40;90.50
19258;DHT22;9763;48.780;9.212;2023-11-19T18:38:39;14.40;90.50
19258;DHT22;9763;48.780;9.212;2023-11-19T18:42:05;14.40;90.60
19258;DHT22;9763;48.780;9.212;2023-11-19T18:45:30;14.40;90.70
19258;DHT22;9763;48.780;9.212;2023-11-19T18:48:54;14.40;90.50
19258;DHT22;9763;48.780;9.212;2023-11-19T18:52:24;14.40;90.90
19258;DHT22;9763;48.780;9.212;2023-11-19T18:55:47;14.40;90.90
19258;DHT22;9763;48.780;9.212;2023-11-19T18:59:12;14.50;90.80
19258;DHT22;9763;48.780;9.212;2023-11-19T19:02:37;14.40;90.50
19258;DHT22;9763;48.780;9.212;2023-11-19T19:06:02;14.50;90.30
19258;DHT22;9763;48.780;9.212;2023-11-19T19:09:27;14.40;90.60
19258;DHT22;9763;48.780;9.212;2023-11-19T19:12:51;14.50;91.00
19258;DHT22;9763;48.780;9.212;2023-11-19T19:16:16;14.50;91.10
19258;DHT22;9763;48.780;9.212;2023-11-19T19:19:41;14.50;91.30
19258;DHT22;9763;48.780;9.212;2023-11-19T19:23:05;14.50;91.30
19258;DHT22;9763;48.780;9.212;2023-11-19T19:26:28;14.50;91.60
19258;DHT22;9763;48.780;9.212;2023-11-19T19:29:52;14.60;91.90
19258;DHT22;9763;48.780;9.212;2023-11-19T19:33:16;14.60;91.90
19258;DHT22;9763;48.780;9.212;2023-11-19T19:36:42;14.60;91.90
19258;DHT22;9763;48.780;9.212;2023-11-19T19:40:06;14.60;91.60
19258;DHT22;9763;48.780;9.212;2023-11-19T19:43:36;14.60;91.60
19258;DHT22;9763;48.780;9.212;2023-11-19T19:47:01;14.70;91.90
19258;DHT22;9763;48.780;9.212;2023-11-19T19:50:25;14.60;91.60
19258;DHT22;9763;48.780;9.212;2023-11-19T19:53:51;14.60;90.70
19258;DHT22;9763;48.780;9.212;2023-11-19T19:57:15;14.60;90.80
19258;DHT22;9763;48.780;9.212;2023-11-19T20:00:40;14.50;90.70
19258;DHT22;9763;48.780;9.212;2023-11-19T20:04:04;14.40;90.50
19258;DHT22;9763;48.780;9.212;2023-11-19T20:07:28;14.30;90.50
19258;DHT22;9763;48.780;9.212;2023-11-19T20:10:53;14.30;91.10
19258;DHT22;9763;48.780;9.212;2023-11-19T20:14:16;14.20;91.10
19258;DHT22;9763;48.780;9.212;2023-11-19T20:17:45;14.10;90.70
19258;DHT22;9763;48.780;9.212;2023-11-19T20:21:09;14.00;90.70
19258;DHT22;9763;48.780;9.212;2023-11-19T20:24:33;14.00;90.90
19258;DHT22;9763;48.780;9.212;2023-11-19T20:27:58;13.90;90.80
19258;DHT22;9763;48.780;9.212;2023-11-19T20:31:22;13.80;90.80
19258;DHT22;9763;48.780;9.212;2023-11-19T20:34:46;13.80;91.20
19258;DHT22;9763;48.780;9.212;2023-11-19T20:38:10;13.70;91.50
19258;DHT22;9763;48.780;9.212;2023-11-19T20:41:35;13.70;91.60
19258;DHT22;9763;48.780;9.212;2023-11-19T20:45:00;13.70;91.70
19258;DHT22;9763;48.780;9.212;2023-11-19T20:48:25;13.60;91.70
19258;DHT22;9763;48.780;9.212;2023-11-19T20:51:48;13.60;91.60
19258;DHT22;9763;48.780;9.212;2023-11-19T20:58:37;13.60;91.80
19258;DHT22;9763;48.780;9.212;2023-11-19T21:02:02;13.60;92.00
19258;DHT22;9763;48.780;9.212;2023-11-19T21:05:26;13.60;91.40
19258;DHT22;9763;48.780;9.212;2023-11-19T21:08:50;13.50;91.40
19258;DHT22;9763;48.780;9.212;2023-11-19T21:12:15;13.50;90.90
19258;DHT22;9763;48.780;9.212;2023-11-19T21:15:39;13.50;90.60
19258;DHT22;9763;48.780;9.212;2023-11-19T21:19:17;13.50;90.70
19258;DHT22;9763;48.780;9.212;2023-11-19T21:22:40;13.40;90.80
19258;DHT22;9763;48.780;9.212;2023-11-19T21:26:04;13.40;90.60
19258;DHT22;9763;48.780;9.212;2023-11-19T21:29:28;13.40;90.90
19258;DHT22;9763;48.780;9.212;2023-11-19T21:32:52;13.40;90.70
19258;DHT22;9763;48.780;9.212;2023-11-19T21:36:17;13.40;90.60
19258;DHT22;9763;48.780;9.212;2023-11-19T21:39:43;13.30;90.50
19258;DHT22;9763;48.780;9.212;2023-11-19T21:43:07;13.30;90.30
19258;DHT22;9763;48.780;9.212;2023-11-19T21:46:32;13.30;90.40
19258;DHT22;9763;48.780;9.212;2023-11-19T21:49:56;13.30;90.80
19258;DHT22;9763;48.780;9.212;2023-11-19T21:53:25;13.30;90.70
19258;DHT22;9763;48.780;9.212;2023-11-19T21:56:48;13.30;90.40
19258;DHT22;9763;48.780;9.212;2023-11-19T22:00:13;13.30;90.60